Time;durP1;ratioP1;P1;durP2;ratioP2;P2;SDS_P1;SDS_P2;PMS_P1;PMS_P2;Temp;Humidity;BMP_temperature;BMP_pressure;BME280_temperature;BME280_humidity;BME280_pressure;Samples;Min_cycle;Max_cycle;Signal;HPM_P1;HPM_P2
2022/10/29 00:01:43;;;;;;;14.18;6.40;;;;;;;17.31;nan;100825.06;5034263;28;20056;-80
2022/10/29 00:04:10;;;;;;;13.63;6.18;;;;;;;17.34;nan;100827.16;5033872;28;20414;-80
2022/10/29 00:06:39;;;;;;;11.38;5.72;;;;;;;17.33;nan;100829.16;5034339;28;20497;-80
2022/10/29 00:09:06;;;;;;;14.63;6.33;;;;;;;17.36;nan;100838.88;5033827;28;20409;-80
2022/10/29 00:11:34;;;;;;;9.93;5.80;;;;;;;17.38;nan;100843.00;5034255;28;20487;-80
2022/10/29 00:14:02;;;;;;;11.25;5.78;;;;;;;17.39;nan;100826.94;5032319;28;20084;-80
2022/10/29 00:16:35;;;;;;;11.90;5.78;;;;;;;17.41;nan;100828.22;5034018;28;20061;-80
2022/10/29 00:19:06;;;;;;;12.10;6.38;;;;;;;17.43;nan;100834.31;5033100;28;20061;-80
2022/10/29 00:21:36;;;;;;;9.90;5.55;;;;;;;17.45;nan;100831.97;5033738;28;20064;-79
2022/10/29 00:24:06;;;;;;;13.63;6.22;;;;;;;17.44;nan;100830.31;5033380;28;20498;-80
2022/10/29 00:26:33;;;;;;;11.98;6.32;;;;;;;17.42;nan;100829.84;5028351;28;20057;-80
2022/10/29 00:29:01;;;;;;;14.10;5.93;;;;;;;17.41;nan;100838.66;5026649;28;20061;-79
2022/10/29 00:31:28;;;;;;;10.77;5.88;;;;;;;17.38;nan;100837.34;5033819;28;20084;-80
2022/10/29 00:33:56;;;;;;;11.00;5.60;;;;;;;17.37;nan;100827.28;5033989;28;20076;-80
2022/10/29 00:36:26;;;;;;;9.82;5.68;;;;;;;17.38;nan;100833.72;5015926;28;20057;-80
2022/10/29 00:38:53;;;;;;;13.55;6.00;;;;;;;17.37;nan;100832.91;5033197;28;20076;-80
2022/10/29 00:41:25;;;;;;;11.32;6.07;;;;;;;17.42;nan;100826.22;5031682;28;20072;-80
2022/10/29 00:44:39;;;;;;;11.73;6.03;;;;;;;17.42;nan;100835.47;5023272;28;20068;-80
2022/10/29 00:47:23;;;;;;;14.85;5.68;;;;;;;17.40;nan;100842.66;4986777;28;20408;-80
2022/10/29 00:49:56;;;;;;;10.68;5.63;;;;;;;17.41;nan;100836.66;5031697;28;20060;-80
2022/10/29 00:52:25;;;;;;;9.45;5.75;;;;;;;17.45;nan;100840.41;5034633;28;20060;-80
2022/10/29 00:54:55;;;;;;;10.57;5.97;;;;;;;17.48;nan;100838.06;5051366;28;20067;-79
2022/10/29 00:57:28;;;;;;;12.98;6.05;;;;;;;17.51;nan;100840.16;5027352;28;20057;-80
2022/10/29 00:59:55;;;;;;;9.18;5.38;;;;;;;17.53;nan;100838.63;5031168;28;20060;-80
2022/10/29 01:02:23;;;;;;;12.18;5.55;;;;;;;17.58;nan;100834.78;5032876;28;20057;-80
2022/10/29 01:04:53;;;;;;;13.25;6.55;;;;;;;17.58;nan;100827.16;5032812;28;20057;-80
2022/10/29 01:07:20;;;;;;;9.65;5.50;;;;;;;17.60;nan;100827.63;5032547;28;20064;-80
2022/10/29 01:09:48;;;;;;;14.43;6.60;;;;;;;17.62;nan;100822.44;5015091;28;20053;-80
2022/10/29 01:12:35;;;;;;;12.80;6.28;;;;;;;17.66;nan;100822.56;5030048;28;20394;-80
2022/10/29 01:15:10;;;;;;;12.35;6.30;;;;;;;17.67;nan;100806.47;5032868;28;20061;-80
2022/10/29 01:17:50;;;;;;;12.32;6.60;;;;;;;17.66;nan;100805.69;5033042;28;20065;-80
2022/10/29 01:20:50;;;;;;;14.68;6.95;;;;;;;17.67;nan;100809.31;5032536;28;20050;-80
2022/10/29 01:23:56;;;;;;;10.05;5.82;;;;;;;17.69;nan;100809.78;5017153;28;20466;-80
2022/10/29 01:27:07;;;;;;;10.32;6.45;;;;;;;17.67;nan;100807.31;5032639;28;20068;-80
2022/10/29 01:29:55;;;;;;;13.77;7.18;;;;;;;17.66;nan;100805.69;4973712;28;20493;-80
2022/10/29 01:32:31;;;;;;;11.88;6.00;;;;;;;17.65;nan;100810.47;5032644;28;20057;-80
2022/10/29 01:35:04;;;;;;;16.02;6.68;;;;;;;17.63;nan;100817.63;5032888;28;20061;-80
2022/10/29 01:37:41;;;;;;;15.07;6.32;;;;;;;17.63;nan;100821.25;5024999;28;20054;-80
2022/10/29 01:40:20;;;;;;;14.60;6.07;;;;;;;17.60;nan;100795.81;5024296;28;20065;-80
2022/10/29 01:42:51;;;;;;;14.13;6.67;;;;;;;17.61;nan;100798.25;5033046;28;20053;-80
2022/10/29 01:45:26;;;;;;;9.95;5.95;;;;;;;17.61;nan;100791.81;5032420;28;20524;-80
2022/10/29 01:48:02;;;;;;;17.75;5.97;;;;;;;17.62;nan;100790.66;5032191;28;20076;-80
2022/10/29 01:50:29;;;;;;;13.85;6.28;;;;;;;17.64;nan;100785.50;5032337;28;20132;-80
2022/10/29 01:52:57;;;;;;;15.48;6.18;;;;;;;17.60;nan;100790.19;5036828;28;20063;-80
2022/10/29 01:55:29;;;;;;;15.13;5.70;;;;;;;17.57;nan;100804.97;5051775;28;20080;-80
2022/10/29 01:57:57;;;;;;;14.88;5.85;;;;;;;17.53;nan;100789.94;5052239;28;20056;-80
2022/10/29 02:00:28;;;;;;;11.52;5.65;;;;;;;17.51;nan;100781.03;5012279;28;20065;-80
2022/10/29 02:03:12;;;;;;;9.07;5.00;;;;;;;17.50;nan;100785.03;5011753;28;20085;-80
2022/10/29 02:05:55;;;;;;;11.20;5.85;;;;;;;17.47;nan;100780.09;5012322;28;20065;-80
2022/10/29 02:08:36;;;;;;;15.60;6.30;;;;;;;17.42;nan;100781.97;5026296;28;20088;-80
2022/10/29 02:11:09;;;;;;;9.65;5.75;;;;;;;17.38;nan;100775.41;5031708;28;20060;-80
2022/10/29 02:13:43;;;;;;;10.68;6.07;;;;;;;17.34;nan;100776.47;5032253;28;20061;-80
2022/10/29 02:16:11;;;;;;;13.23;5.25;;;;;;;17.31;nan;100755.47;5032043;28;20058;-80
2022/10/29 02:18:45;;;;;;;14.33;6.93;;;;;;;17.31;nan;100746.22;5032382;28;20520;-80
2022/10/29 02:21:16;;;;;;;11.05;5.50;;;;;;;17.29;nan;100743.75;5031911;28;20375;-79
2022/10/29 02:23:44;;;;;;;12.57;6.50;;;;;;;17.26;nan;100744.47;5028386;28;20064;-80
2022/10/29 02:26:11;;;;;;;14.05;5.78;;;;;;;17.24;nan;100744.81;5031819;28;20053;-80
2022/10/29 02:28:40;;;;;;;12.27;6.80;;;;;;;17.19;nan;100761.94;5032410;28;20049;-80
2022/10/29 02:31:07;;;;;;;13.88;7.03;;;;;;;17.13;nan;100754.06;5031610;28;20485;-80
2022/10/29 02:33:34;;;;;;;10.98;6.55;;;;;;;17.09;nan;100764.41;5032538;28;20072;-80
2022/10/29 02:36:03;;;;;;;10.70;6.22;;;;;;;17.04;nan;100768.28;5029521;28;20422;-80
2022/10/29 02:38:31;;;;;;;13.55;6.93;;;;;;;16.97;nan;100763.22;5007240;28;20073;-80
2022/10/29 02:41:00;;;;;;;11.73;6.80;;;;;;;16.91;nan;100764.63;5011772;28;20060;-80
2022/10/29 02:43:27;;;;;;;;;;;;;;;16.81;nan;100767.91;5012342;28;20062;-80
2022/10/29 02:46:11;;;;;;;11.35;6.20;;;;;;;16.79;nan;100761.75;5012150;28;19925;-80
2022/10/29 02:48:38;;;;;;;10.80;6.13;;;;;;;16.79;nan;100756.13;5011775;28;20069;-80
2022/10/29 02:51:13;;;;;;;9.57;5.18;;;;;;;16.79;nan;100756.94;5015553;28;20490;-80
2022/10/29 02:53:41;;;;;;;13.90;6.45;;;;;;;16.80;nan;100754.97;5031706;28;20414;-80
2022/10/29 02:56:09;;;;;;;13.73;6.22;;;;;;;16.78;nan;100754.50;5031433;28;20057;-80
2022/10/29 02:58:36;;;;;;;10.13;5.80;;;;;;;16.78;nan;100748.88;5026794;28;20050;-80
2022/10/29 03:01:05;;;;;;;11.80;6.15;;;;;;;16.77;nan;100750.03;5050233;28;20079;-80
2022/10/29 03:03:33;;;;;;;13.30;6.93;;;;;;;16.77;nan;100741.59;5051270;28;20049;-80
2022/10/29 03:06:00;;;;;;;14.50;6.63;;;;;;;16.73;nan;100746.28;5041410;28;20054;-80
2022/10/29 03:08:29;;;;;;;11.75;6.00;;;;;;;16.70;nan;100742.19;5031165;28;20061;-80
2022/10/29 03:10:56;;;;;;;9.83;6.50;;;;;;;16.70;nan;100742.19;5031892;28;20514;-81
2022/10/29 03:13:24;;;;;;;11.85;6.50;;;;;;;16.67;nan;100739.25;5031664;28;20487;-80
2022/10/29 03:15:51;;;;;;;12.00;6.22;;;;;;;16.63;nan;100742.75;5034545;28;20068;-80
2022/10/29 03:18:18;;;;;;;15.05;6.68;;;;;;;16.57;nan;100744.16;5035052;28;20057;-80
2022/10/29 03:20:46;;;;;;;14.98;6.30;;;;;;;16.57;nan;100749.78;5034580;28;20486;-80
2022/10/29 03:23:13;;;;;;;11.73;6.70;;;;;;;16.51;nan;100750.38;5034526;28;20053;-80
2022/10/29 03:25:42;;;;;;;11.32;5.95;;;;;;;16.48;nan;100751.03;5035339;28;20057;-80
2022/10/29 03:28:09;;;;;;;11.90;5.90;;;;;;;16.42;nan;100747.63;5034659;28;20061;-80
2022/10/29 03:30:36;;;;;;;9.88;6.50;;;;;;;16.44;nan;100746.13;5034646;28;20057;-80
2022/10/29 03:33:04;;;;;;;12.48;5.82;;;;;;;16.40;nan;100752.78;5035370;28;20058;-80
2022/10/29 03:35:31;;;;;;;11.00;6.45;;;;;;;16.35;nan;100748.19;5032724;28;20053;-80
2022/10/29 03:37:58;;;;;;;10.05;5.43;;;;;;;16.34;nan;100743.75;5035588;28;20447;-80
2022/10/29 03:40:25;;;;;;;11.43;6.38;;;;;;;16.30;nan;100759.66;5034250;28;20061;-80
2022/10/29 03:42:54;;;;;;;8.52;5.47;;;;;;;16.26;nan;100747.47;5034909;28;20059;-80
2022/10/29 03:45:22;;;;;;;10.43;5.90;;;;;;;16.22;nan;100741.72;5032808;28;20068;-80
2022/10/29 03:47:49;;;;;;;9.27;5.70;;;;;;;16.20;nan;100746.84;5034849;28;20053;-81
2022/10/29 03:50:16;;;;;;;8.25;5.88;;;;;;;16.16;nan;100751.53;5034411;28;20057;-80
2022/10/29 03:52:44;;;;;;;10.75;6.18;;;;;;;16.08;nan;100755.25;5034829;28;20053;-80
2022/10/29 03:55:11;;;;;;;13.73;7.05;;;;;;;16.05;nan;100749.50;5034090;28;20494;-79
2022/10/29 03:57:38;;;;;;;14.93;8.18;;;;;;;15.99;nan;100744.09;5034624;28;20061;-80
2022/10/29 04:00:09;;;;;;;11.88;5.65;;;;;;;16.01;nan;100749.38;5039299;28;20064;-80
2022/10/29 04:02:37;;;;;;;10.90;5.60;;;;;;;16.01;nan;100746.56;5055969;28;20053;-80
2022/10/29 04:05:04;;;;;;;15.52;6.35;;;;;;;16.02;nan;100748.19;5054418;28;20052;-80
2022/10/29 04:07:31;;;;;;;14.85;6.57;;;;;;;15.99;nan;100751.69;5020001;28;20058;-80
2022/10/29 04:09:59;;;;;;;12.80;6.22;;;;;;;15.98;nan;100744.41;5014651;28;20387;-80
2022/10/29 04:12:26;;;;;;;9.93;5.78;;;;;;;16.00;nan;100750.50;5014369;28;20065;-80
2022/10/29 04:14:54;;;;;;;10.55;5.95;;;;;;;16.02;nan;100745.38;5014420;28;20054;-80
2022/10/29 04:17:30;;;;;;;16.20;6.82;;;;;;;16.05;nan;100744.69;5014169;28;20057;-80
2022/10/29 04:20:01;;;;;;;13.48;6.30;;;;;;;16.05;nan;100743.88;5014464;28;20064;-80
2022/10/29 04:22:28;;;;;;;12.68;6.00;;;;;;;16.04;nan;100737.44;5014185;28;20061;-79
2022/10/29 04:24:55;;;;;;;11.88;6.50;;;;;;;16.03;nan;100741.41;5013875;28;20129;-79
2022/10/29 04:27:23;;;;;;;11.82;6.65;;;;;;;16.04;nan;100743.03;5013550;28;20106;-80
2022/10/29 04:29:50;;;;;;;15.00;5.75;;;;;;;16.03;nan;100738.59;5014236;28;20061;-80
2022/10/29 04:32:17;;;;;;;9.07;5.28;;;;;;;16.07;nan;100727.50;5014300;28;20402;-80
2022/10/29 04:34:46;;;;;;;8.90;5.30;;;;;;;16.08;nan;100720.69;5020154;28;20167;-80
2022/10/29 04:37:13;;;;;;;9.55;5.60;;;;;;;16.09;nan;100717.56;5033819;28;20065;-82
2022/10/29 04:39:40;;;;;;;8.68;5.82;;;;;;;16.05;nan;100702.56;5034167;28;20053;-80
2022/10/29 04:42:08;;;;;;;11.35;5.70;;;;;;;16.01;nan;100708.03;5028892;28;20068;-79
2022/10/29 04:44:37;;;;;;;12.93;5.93;;;;;;;16.01;nan;100718.47;5044523;28;20457;-80
2022/10/29 04:47:04;;;;;;;;;;;;;;;15.95;nan;100711.41;5054483;28;20072;-80
2022/10/29 04:49:32;;;;;;;10.50;5.80;;;;;;;15.91;nan;100711.28;5053945;28;19932;-80
2022/10/29 04:52:01;;;;;;;12.65;6.38;;;;;;;15.85;nan;100711.84;5054183;28;20068;-81
2022/10/29 04:54:29;;;;;;;13.07;6.10;;;;;;;15.78;nan;100716.00;5053244;28;20489;-80
2022/10/29 04:56:57;;;;;;;16.40;6.32;;;;;;;15.77;nan;100721.97;5053441;28;20059;-80
2022/10/29 04:59:24;;;;;;;10.25;5.72;;;;;;;15.74;nan;100733.91;5036977;28;20061;-81
2022/10/29 05:01:56;;;;;;;12.35;6.20;;;;;;;15.71;nan;100735.38;5050644;28;20060;-81
2022/10/29 05:04:23;;;;;;;9.50;5.57;;;;;;;15.68;nan;100724.81;5053388;28;20056;-82
2022/10/29 05:06:50;;;;;;;10.32;6.00;;;;;;;15.69;nan;100718.06;5053702;28;20056;-81
2022/10/29 05:09:19;;;;;;;10.15;5.95;;;;;;;15.69;nan;100695.59;5053168;28;20060;-80
2022/10/29 05:11:46;;;;;;;9.73;6.43;;;;;;;15.72;nan;100694.09;5053619;28;20056;-81
2022/10/29 05:14:14;;;;;;;10.73;6.13;;;;;;;15.73;nan;100693.78;5050520;28;20059;-80
2022/10/29 05:16:41;;;;;;;13.93;5.72;;;;;;;15.75;nan;100691.44;5033159;28;20068;-81
2022/10/29 05:19:08;;;;;;;12.15;5.38;;;;;;;15.79;nan;100675.53;5033065;28;20068;-80
2022/10/29 05:21:36;;;;;;;10.70;5.78;;;;;;;15.82;nan;100680.47;5033370;28;20401;-80
2022/10/29 05:24:03;;;;;;;11.27;5.72;;;;;;;15.86;nan;100669.34;5033338;28;20513;-81
2022/10/29 05:26:32;;;;;;;13.95;5.95;;;;;;;15.91;nan;100671.13;5032832;28;20061;-80
2022/10/29 05:29:00;;;;;;;9.80;6.38;;;;;;;15.91;nan;100671.13;5032601;28;20120;-80
2022/10/29 05:31:28;;;;;;;15.20;6.28;;;;;;;15.90;nan;100655.44;5030489;28;20057;-80
2022/10/29 05:33:56;;;;;;;8.50;5.70;;;;;;;15.90;nan;100655.44;5032865;28;20049;-80
2022/10/29 05:36:23;;;;;;;10.90;6.22;;;;;;;15.86;nan;100648.88;5017843;28;20050;-80
2022/10/29 05:38:50;;;;;;;14.30;6.07;;;;;;;15.89;nan;100642.56;5018147;28;20049;-80
2022/10/29 05:41:18;;;;;;;12.85;6.10;;;;;;;15.87;nan;100642.91;5032145;28;20064;-80
2022/10/29 05:43:50;;;;;;;9.30;6.20;;;;;;;15.90;nan;100663.88;5019585;28;20049;-81
2022/10/29 05:46:17;;;;;;;12.38;6.45;;;;;;;15.88;nan;100660.59;5032027;28;20060;-80
2022/10/29 05:48:44;;;;;;;12.43;6.75;;;;;;;15.90;nan;100669.50;5032304;28;20061;-80
2022/10/29 05:51:11;;;;;;;8.88;6.22;;;;;;;15.88;nan;100671.84;5031752;28;20061;-81
2022/10/29 05:53:39;;;;;;;10.00;6.22;;;;;;;15.88;nan;100680.25;5032343;28;20053;-81
2022/10/29 05:56:07;;;;;;;10.02;5.97;;;;;;;15.91;nan;100677.56;5022151;28;20058;-81
2022/10/29 05:58:35;;;;;;;10.37;6.63;;;;;;;15.93;nan;100675.22;5024526;28;20050;-81
2022/10/29 06:01:07;;;;;;;10.77;6.45;;;;;;;15.95;nan;100672.06;5024126;28;20060;-81
2022/10/29 06:03:34;;;;;;;14.45;5.90;;;;;;;15.99;nan;100668.22;5031101;28;20052;-81
2022/10/29 06:06:01;;;;;;;9.85;5.82;;;;;;;15.99;nan;100668.22;5032012;28;20060;-80
2022/10/29 06:08:29;;;;;;;11.02;5.63;;;;;;;15.99;nan;100678.66;5032232;28;20485;-80
2022/10/29 06:10:56;;;;;;;10.02;5.80;;;;;;;15.98;nan;100674.19;5030474;28;20045;-80
2022/10/29 06:13:23;;;;;;;10.73;6.00;;;;;;;15.99;nan;100668.22;5031170;28;20065;-80
2022/10/29 06:15:51;;;;;;;12.23;6.32;;;;;;;16.00;nan;100669.03;5030394;28;20430;-81
2022/10/29 06:18:19;;;;;;;11.55;6.45;;;;;;;16.04;nan;100670.00;5031167;28;20069;-80
2022/10/29 06:20:50;;;;;;;11.27;5.90;;;;;;;16.07;nan;100674.94;5027796;28;20061;-81
2022/10/29 06:23:17;;;;;;;7.90;5.10;;;;;;;16.13;nan;100667.94;5014636;28;20056;-80
2022/10/29 06:25:44;;;;;;;8.65;4.95;;;;;;;16.19;nan;100669.34;5028629;28;20057;-81
2022/10/29 06:28:14;;;;;;;9.27;6.22;;;;;;;16.21;nan;100660.53;5026971;28;20501;-81
2022/10/29 06:30:45;;;;;;;10.38;5.85;;;;;;;16.22;nan;100670.63;5026691;28;20057;-81
2022/10/29 06:33:12;;;;;;;10.63;5.63;;;;;;;16.24;nan;100673.91;5022737;28;20487;-80
2022/10/29 06:35:41;;;;;;;9.55;5.40;;;;;;;16.29;nan;100668.06;5027535;28;20064;-81
2022/10/29 06:38:09;;;;;;;11.05;6.05;;;;;;;16.33;nan;100673.81;5032578;28;20065;-81
2022/10/29 06:40:36;;;;;;;10.07;5.32;;;;;;;16.38;nan;100668.78;5010586;28;20053;-81
2022/10/29 06:43:09;;;;;;;10.15;5.75;;;;;;;16.48;nan;100661.88;5019715;28;20054;-81
2022/10/29 06:45:37;;;;;;;13.55;6.10;;;;;;;16.51;nan;100661.19;5023564;28;20053;-81
2022/10/29 06:48:05;;;;;;;13.15;5.90;;;;;;;16.58;nan;100666.22;5028444;28;20061;-80
2022/10/29 06:50:33;;;;;;;9.32;5.90;;;;;;;16.65;nan;100674.91;5022329;28;20060;-82
2022/10/29 06:53:03;;;;;;;17.63;8.20;;;;;;;16.69;nan;100675.03;5032459;28;20045;-84
2022/10/29 06:55:31;;;;;;;10.18;6.18;;;;;;;16.66;nan;100673.75;5020326;28;20054;-83
2022/10/29 06:58:00;;;;;;;11.45;6.28;;;;;;;16.74;nan;100663.56;5029201;28;20097;-82
2022/10/29 07:00:28;;;;;;;11.30;5.80;;;;;;;16.81;nan;100658.19;5024087;28;21493;-80
2022/10/29 07:02:55;;;;;;;14.57;6.35;;;;;;;16.89;nan;100656.44;5033427;28;20064;-81
2022/10/29 07:05:23;;;;;;;11.85;6.13;;;;;;;16.95;nan;100653.00;5035120;28;20059;-81
2022/10/29 07:07:55;;;;;;;15.60;6.00;;;;;;;17.02;nan;100647.59;5031457;28;20057;-81
2022/10/29 07:10:24;;;;;;;11.88;5.85;;;;;;;17.15;nan;100667.28;5041276;28;20056;-81
2022/10/29 07:12:52;;;;;;;;;;;;;;;17.12;nan;100668.81;5028463;28;20509;-81
2022/10/29 07:15:19;;;;;;;10.23;6.15;;;;;;;17.10;nan;100662.72;5030427;28;19932;-81
2022/10/29 07:17:54;;;;;;;11.52;7.03;;;;;;;17.18;nan;100660.97;5015926;28;20061;-82
2022/10/29 07:20:25;;;;;;;14.65;7.22;;;;;;;17.23;nan;100655.88;5025660;28;20057;-81
2022/10/29 07:22:52;;;;;;;15.25;7.13;;;;;;;17.25;nan;100652.72;5027644;28;20049;-81
2022/10/29 07:25:19;;;;;;;14.85;6.35;;;;;;;17.29;nan;100650.03;5023561;28;20057;-81
2022/10/29 07:27:48;;;;;;;11.90;6.22;;;;;;;17.37;nan;100652.69;5023054;28;20060;-80
2022/10/29 07:30:16;;;;;;;11.53;6.47;;;;;;;17.45;nan;100665.81;5022602;28;20117;-81
2022/10/29 07:32:44;;;;;;;12.65;7.28;;;;;;;17.51;nan;100665.56;5030545;28;20053;-81
2022/10/29 07:35:19;;;;;;;11.30;6.20;;;;;;;17.61;nan;100662.25;5023218;28;20065;-81
2022/10/29 07:37:46;;;;;;;11.55;6.15;;;;;;;17.76;nan;100669.91;5019737;28;20053;-80
2022/10/29 07:40:14;;;;;;;13.93;7.70;;;;;;;17.88;nan;100668.28;5029500;28;20533;-82
2022/10/29 07:42:44;;;;;;;9.60;5.85;;;;;;;18.01;nan;100670.66;5025910;28;20058;-80
2022/10/29 07:45:13;;;;;;;13.15;6.53;;;;;;;18.25;nan;100672.53;5029551;28;20073;-81
2022/10/29 07:47:41;;;;;;;12.80;5.53;;;;;;;18.35;nan;100679.66;5010473;28;20395;-81
2022/10/29 07:50:11;;;;;;;10.32;5.68;;;;;;;18.40;nan;100668.09;5015661;28;20054;-81
2022/10/29 07:52:39;;;;;;;13.90;6.10;;;;;;;18.51;nan;100665.53;5035782;28;20057;-82
2022/10/29 07:55:10;;;;;;;10.00;5.57;;;;;;;18.68;nan;100664.34;5020699;28;20084;-81
2022/10/29 07:57:37;;;;;;;12.23;6.85;;;;;;;19.00;nan;100658.69;5022753;28;20057;-83
2022/10/29 08:00:06;;;;;;;11.40;5.93;;;;;;;19.43;nan;100673.81;5032458;28;20057;-82
2022/10/29 08:02:35;;;;;;;11.30;6.33;;;;;;;19.72;nan;100680.91;5068064;22;20045;-62
2022/10/29 08:05:02;;;;;;;10.40;6.13;;;;;;;19.99;nan;100679.03;5052368;22;20060;-61
2022/10/29 08:07:34;;;;;;;14.80;6.38;;;;;;;21.28;nan;100674.78;5038145;28;20061;-63
2022/10/29 08:10:01;;;;;;;14.80;6.25;;;;;;;21.46;nan;100667.38;5034041;28;20077;-63
2022/10/29 08:12:28;;;;;;;14.30;6.53;;;;;;;22.38;nan;100662.38;5026968;28;20065;-61
2022/10/29 08:14:55;;;;;;;13.02;5.85;;;;;;;23.26;nan;100669.97;5031108;28;20518;-64
2022/10/29 08:17:23;;;;;;;8.23;4.97;;;;;;;23.80;nan;100658.09;5032864;28;20065;-62
2022/10/29 08:19:51;;;;;;;9.32;5.38;;;;;;;24.80;nan;100651.75;5033111;28;20478;-63
2022/10/29 08:22:18;;;;;;;8.63;5.95;;;;;;;25.82;nan;100654.78;5028118;28;20060;-61
2022/10/29 08:24:46;;;;;;;10.38;5.45;;;;;;;25.95;nan;100657.19;5029790;28;20115;-63
2022/10/29 08:27:13;;;;;;;12.98;6.18;;;;;;;25.38;nan;100653.31;5029953;28;20058;-61
2022/10/29 08:29:40;;;;;;;14.15;6.43;;;;;;;25.19;nan;100650.91;5026968;28;20433;-61
2022/10/29 08:32:07;;;;;;;12.32;6.70;;;;;;;25.14;nan;100654.19;5026417;28;20106;-60
2022/10/29 08:34:35;;;;;;;13.13;6.28;;;;;;;24.86;nan;100653.81;5032278;28;20061;-61
2022/10/29 08:37:03;;;;;;;12.50;6.30;;;;;;;24.86;nan;100648.13;5029888;28;20080;-61
2022/10/29 08:39:30;;;;;;;10.40;6.22;;;;;;;24.94;nan;100646.06;5032906;28;20053;-61
2022/10/29 08:42:06;;;;;;;11.45;6.65;;;;;;;25.46;nan;100646.38;5032654;28;20060;-61
2022/10/29 08:44:53;;;;;;;12.20;6.25;;;;;;;25.47;nan;100645.16;5030846;28;20049;-61
2022/10/29 08:47:23;;;;;;;12.82;6.55;;;;;;;25.96;nan;100630.31;5031733;28;20053;-61
2022/10/29 08:50:02;;;;;;;11.07;6.70;;;;;;;26.49;nan;100634.81;5028313;28;20062;-58
2022/10/29 08:52:36;;;;;;;11.30;6.13;;;;;;;27.33;nan;100640.19;5023199;28;20057;-61
2022/10/29 08:55:12;;;;;;;14.00;6.70;;;;;;;28.07;nan;100636.81;5031478;28;20042;-61
2022/10/29 08:57:43;;;;;;;10.60;5.85;;;;;;;29.24;nan;100635.28;5030168;28;20065;-62
2022/10/29 09:00:15;;;;;;;13.38;6.13;;;;;;;29.37;nan;100637.53;5032745;28;20057;-61
2022/10/29 09:02:42;;;;;;;12.73;5.57;;;;;;;29.38;nan;100624.78;5028795;28;20054;-62
2022/10/29 09:05:14;;;;;;;10.95;5.80;;;;;;;30.51;nan;100611.19;5028916;28;20057;-62
2022/10/29 09:07:59;;;;;;;11.45;6.10;;;;;;;31.82;nan;100607.22;5031148;28;20061;-62
2022/10/29 09:10:33;;;;;;;14.32;6.22;;;;;;;32.52;nan;100608.25;5032430;28;20054;-64
2022/10/29 09:13:23;;;;;;;9.25;5.43;;;;;;;32.90;nan;100607.38;5028885;28;20049;-62
2022/10/29 09:16:13;;;;;;;9.27;5.07;;;;;;;33.81;nan;100611.50;5025500;28;20045;-62
2022/10/29 09:18:59;;;;;;;9.88;5.30;;;;;;;34.58;nan;100605.88;5032211;28;20061;-64
2022/10/29 09:21:33;;;;;;;9.82;5.53;;;;;;;34.92;nan;100607.75;5030745;28;20061;-62
2022/10/29 09:24:16;;;;;;;10.43;4.78;;;;;;;35.43;nan;100594.72;5031234;28;20066;-62
2022/10/29 09:26:53;;;;;;;11.82;5.88;;;;;;;36.09;nan;100599.88;5030631;28;20061;-62
2022/10/29 09:29:33;;;;;;;12.23;5.72;;;;;;;35.50;nan;100599.38;5031383;28;20497;-62
2022/10/29 09:32:05;;;;;;;8.15;4.80;;;;;;;35.81;nan;100601.28;5028714;28;20057;-62
2022/10/29 09:34:38;;;;;;;12.35;5.45;;;;;;;36.72;nan;100591.34;5032072;28;20049;-62
2022/10/29 09:37:14;;;;;;;8.65;5.55;;;;;;;37.40;nan;100583.22;5030477;28;20057;-62
2022/10/29 09:39:44;;;;;;;10.75;5.55;;;;;;;37.64;nan;100597.72;5031094;28;20053;-66
2022/10/29 09:42:15;;;;;;;11.43;5.85;;;;;;;37.35;nan;100588.44;5032129;28;20414;-63
2022/10/29 09:44:51;;;;;;;8.75;5.57;;;;;;;38.23;nan;100586.03;5031127;28;20058;-62
2022/10/29 09:47:32;;;;;;;9.27;4.68;;;;;;;38.92;nan;100597.31;5025789;28;20068;-63
2022/10/29 09:50:09;;;;;;;8.10;4.20;;;;;;;38.90;nan;100591.22;5029973;28;20053;-63
2022/10/29 09:52:40;;;;;;;12.10;4.15;;;;;;;37.84;nan;100585.34;5028402;28;20155;-62
2022/10/29 09:55:18;;;;;;;10.27;3.50;;;;;;;36.93;nan;100595.22;5023391;28;20057;-62
2022/10/29 09:57:46;;;;;;;10.55;3.75;;;;;;;35.33;nan;100585.25;5030046;28;20064;-61
2022/10/29 10:00:20;;;;;;;12.45;3.53;;;;;;;34.13;nan;100581.34;5031667;28;20418;-62
2022/10/29 10:02:53;;;;;;;8.55;3.70;;;;;;;34.51;nan;100589.63;5030461;28;20065;-62
2022/10/29 10:05:25;;;;;;;11.68;3.35;;;;;;;34.58;nan;100586.44;5030908;28;20068;-62
2022/10/29 10:08:19;;;;;;;12.32;3.70;;;;;;;35.14;nan;100578.66;5016027;28;20533;-62
2022/10/29 10:10:54;;;;;;;12.23;3.55;;;;;;;35.92;nan;100579.16;4993356;28;20053;-62
2022/10/29 10:13:25;;;;;;;9.70;3.55;;;;;;;36.06;nan;100574.75;5030557;28;20057;-61
2022/10/29 10:15:54;;;;;;;9.10;3.38;;;;;;;35.90;nan;100573.03;5029266;28;20061;-63
2022/10/29 10:18:23;;;;;;;11.40;3.97;;;;;;;35.72;nan;100573.09;5024209;28;20493;-61
2022/10/29 10:21:05;;;;;;;14.43;4.07;;;;;;;34.66;nan;100571.69;5028299;28;21016;-61
2022/10/29 10:23:45;;;;;;;10.60;3.70;;;;;;;32.82;nan;100574.28;5029098;28;20065;-61
2022/10/29 10:26:35;;;;;;;8.82;3.60;;;;;;;31.70;nan;100568.47;5034112;28;20064;-61
2022/10/29 10:29:21;;;;;;;12.25;4.20;;;;;;;31.18;nan;100573.25;5035769;28;20073;-62
2022/10/29 10:31:49;;;;;;;13.35;4.07;;;;;;;30.64;nan;100571.03;5034846;28;20128;-62
2022/10/29 10:34:20;;;;;;;7.97;4.30;;;;;;;31.06;nan;100563.34;5035159;28;20069;-62
2022/10/29 10:36:53;;;;;;;12.30;3.90;;;;;;;30.82;nan;100567.69;5034378;28;20068;-61
2022/10/29 10:39:29;;;;;;;10.27;4.32;;;;;;;30.82;nan;100567.69;5025740;28;20050;-62
2022/10/29 10:42:04;;;;;;;7.13;3.72;;;;;;;30.97;nan;100576.75;5015363;28;20058;-61
2022/10/29 10:44:32;;;;;;;7.97;3.60;;;;;;;30.43;nan;100578.13;5015858;28;20050;-62
2022/10/29 10:47:06;;;;;;;10.15;3.65;;;;;;;30.26;nan;100575.25;5015868;28;20057;-61
2022/10/29 10:49:38;;;;;;;12.20;3.70;;;;;;;29.21;nan;100566.50;5015680;28;20069;-61
2022/10/29 10:52:14;;;;;;;6.88;3.17;;;;;;;29.33;nan;100562.97;5035112;28;20502;-61
2022/10/29 10:54:47;;;;;;;9.05;3.05;;;;;;;29.74;nan;100564.59;5035216;28;20057;-61
2022/10/29 10:57:25;;;;;;;7.85;3.20;;;;;;;29.54;nan;100553.09;5035128;28;20490;-61
2022/10/29 11:00:00;;;;;;;10.95;3.42;;;;;;;28.95;nan;100558.38;5035353;28;20054;-61
2022/10/29 11:02:37;;;;;;;8.77;3.75;;;;;;;29.07;nan;100561.84;5035466;28;20057;-61
2022/10/29 11:05:14;;;;;;;10.98;4.53;;;;;;;28.88;nan;100566.31;5033752;28;20053;-61
2022/10/29 11:07:47;;;;;;;8.45;3.53;;;;;;;28.85;nan;100564.31;5034906;28;20061;-61
2022/10/29 11:10:17;;;;;;;10.43;3.67;;;;;;;29.10;nan;100567.53;5035083;28;20490;-61
2022/10/29 11:12:51;;;;;;;11.30;4.07;;;;;;;29.72;nan;100567.09;5033287;28;20061;-60
2022/10/29 11:15:30;;;;;;;12.05;3.88;;;;;;;30.47;nan;100552.97;5034993;28;20057;-61
2022/10/29 11:18:04;;;;;;;8.70;3.40;;;;;;;30.13;nan;100551.34;5034539;28;20429;-61
2022/10/29 11:20:34;;;;;;;8.52;3.17;;;;;;;30.35;nan;100540.97;5033762;28;20064;-61
2022/10/29 11:23:25;;;;;;;12.20;3.83;;;;;;;29.62;nan;100550.88;5034645;28;20058;-61
2022/10/29 11:25:58;;;;;;;10.77;3.90;;;;;;;30.13;nan;100551.34;5034505;28;20406;-61
2022/10/29 11:28:38;;;;;;;9.77;3.97;;;;;;;31.00;nan;100547.91;5034538;28;20486;-61
2022/10/29 11:31:17;;;;;;;9.32;3.30;;;;;;;31.60;nan;100546.56;5034821;28;20490;-61
2022/10/29 11:33:52;;;;;;;9.80;3.65;;;;;;;31.91;nan;100546.81;5033229;28;20422;-61
2022/10/29 11:36:22;;;;;;;9.25;3.90;;;;;;;31.06;nan;100537.44;5034197;28;20490;-61
2022/10/29 11:38:52;;;;;;;11.15;4.20;;;;;;;30.79;nan;100546.38;5028874;28;20514;-61
2022/10/29 11:41:27;;;;;;;10.70;3.42;;;;;;;30.67;nan;100545.06;5014791;28;20065;-62
2022/10/29 11:43:56;;;;;;;9.52;3.55;;;;;;;31.00;nan;100536.38;5014658;28;20065;-61
2022/10/29 11:46:35;;;;;;;9.90;3.78;;;;;;;31.49;nan;100527.56;5014524;28;20049;-61
2022/10/29 11:49:14;;;;;;;12.25;4.13;;;;;;;32.14;nan;100522.63;5027953;28;20061;-61
2022/10/29 11:51:51;;;;;;;9.57;3.95;;;;;;;31.94;nan;100515.03;5033252;28;20068;-61
2022/10/29 11:54:44;;;;;;;12.82;4.43;;;;;;;32.49;nan;100511.16;5034435;28;20061;-62
2022/10/29 11:57:19;;;;;;;10.38;4.20;;;;;;;33.12;nan;100510.13;5033956;28;20410;-61